sensor_id;sensor_type;location;lat;lon;timestamp;temperature;humidity
19561;DHT22;9927;47.792;10.616;2023-08-21T00:00:46;20.60;99.90
19561;DHT22;9927;47.792;10.616;2023-08-21T00:03:13;20.50;99.90
19561;DHT22;9927;47.792;10.616;2023-08-21T00:05:40;20.60;99.90
19561;DHT22;9927;47.792;10.616;2023-08-21T00:08:08;20.60;99.90
19561;DHT22;9927;47.792;10.616;2023-08-21T00:10:37;20.60;99.90
19561;DHT22;9927;47.792;10.616;2023-08-21T00:13:05;20.60;99.90
19561;DHT22;9927;47.792;10.616;2023-08-21T00:15:32;20.60;99.90
19561;DHT22;9927;47.792;10.616;2023-08-21T00:18:00;20.60;99.90
19561;DHT22;9927;47.792;10.616;2023-08-21T00:20:27;20.50;99.90
19561;DHT22;9927;47.792;10.616;2023-08-21T00:22:55;20.50;99.90
19561;DHT22;9927;47.792;10.616;2023-08-21T00:25:22;20.40;99.90
19561;DHT22;9927;47.792;10.616;2023-08-21T00:27:49;20.30;99.90
19561;DHT22;9927;47.792;10.616;2023-08-21T00:30:17;20.30;99.90
19561;DHT22;9927;47.792;10.616;2023-08-21T00:32:45;20.20;99.90
19561;DHT22;9927;47.792;10.616;2023-08-21T00:35:12;20.20;99.90
19561;DHT22;9927;47.792;10.616;2023-08-21T00:37:39;20.20;99.90
19561;DHT22;9927;47.792;10.616;2023-08-21T00:40:07;20.20;99.90
19561;DHT22;9927;47.792;10.616;2023-08-21T00:42:34;20.20;99.90
19561;DHT22;9927;47.792;10.616;2023-08-21T00:45:02;20.10;99.90
19561;DHT22;9927;47.792;10.616;2023-08-21T00:47:30;20.10;99.90
19561;DHT22;9927;47.792;10.616;2023-08-21T00:49:58;20.10;99.90
19561;DHT22;9927;47.792;10.616;2023-08-21T00:52:28;20.10;99.90
19561;DHT22;9927;47.792;10.616;2023-08-21T00:54:55;20.00;99.90
19561;DHT22;9927;47.792;10.616;2023-08-21T00:57:23;20.00;99.90
19561;DHT22;9927;47.792;10.616;2023-08-21T00:59:50;19.90;99.90
19561;DHT22;9927;47.792;10.616;2023-08-21T01:02:17;19.90;99.90
19561;DHT22;9927;47.792;10.616;2023-08-21T01:04:46;19.90;99.90
19561;DHT22;9927;47.792;10.616;2023-08-21T01:07:13;19.90;99.90
19561;DHT22;9927;47.792;10.616;2023-08-21T01:12:33;19.50;99.90
19561;DHT22;9927;47.792;10.616;2023-08-21T01:15:06;19.20;99.90
19561;DHT22;9927;47.792;10.616;2023-08-21T01:17:34;19.20;99.90
19561;DHT22;9927;47.792;10.616;2023-08-21T01:20:04;19.30;99.90
19561;DHT22;9927;47.792;10.616;2023-08-21T01:22:38;19.30;99.90
19561;DHT22;9927;47.792;10.616;2023-08-21T01:25:07;19.20;99.90
19561;DHT22;9927;47.792;10.616;2023-08-21T01:27:35;19.30;99.90
19561;DHT22;9927;47.792;10.616;2023-08-21T01:30:03;19.30;99.90
19561;DHT22;9927;47.792;10.616;2023-08-21T01:34:59;19.30;99.90
19561;DHT22;9927;47.792;10.616;2023-08-21T01:37:28;19.20;99.90
19561;DHT22;9927;47.792;10.616;2023-08-21T01:39:58;19.10;99.90
19561;DHT22;9927;47.792;10.616;2023-08-21T01:42:25;19.00;99.90
19561;DHT22;9927;47.792;10.616;2023-08-21T01:44:52;19.10;99.90
19561;DHT22;9927;47.792;10.616;2023-08-21T01:47:20;19.00;99.90
19561;DHT22;9927;47.792;10.616;2023-08-21T01:49:48;19.00;99.90
19561;DHT22;9927;47.792;10.616;2023-08-21T01:52:19;19.00;99.90
19561;DHT22;9927;47.792;10.616;2023-08-21T01:54:49;19.00;99.90
19561;DHT22;9927;47.792;10.616;2023-08-21T01:57:16;18.90;99.90
19561;DHT22;9927;47.792;10.616;2023-08-21T01:59:43;18.80;99.90
19561;DHT22;9927;47.792;10.616;2023-08-21T02:02:10;18.80;99.90
19561;DHT22;9927;47.792;10.616;2023-08-21T02:04:38;18.80;99.90
19561;DHT22;9927;47.792;10.616;2023-08-21T02:07:05;18.80;99.90
19561;DHT22;9927;47.792;10.616;2023-08-21T02:09:33;18.90;99.90
19561;DHT22;9927;47.792;10.616;2023-08-21T02:12:00;18.80;99.90
19561;DHT22;9927;47.792;10.616;2023-08-21T02:14:28;18.80;99.90
19561;DHT22;9927;47.792;10.616;2023-08-21T02:16:55;18.80;99.90
19561;DHT22;9927;47.792;10.616;2023-08-21T02:19:22;18.70;99.90
19561;DHT22;9927;47.792;10.616;2023-08-21T02:21:49;18.70;99.90
19561;DHT22;9927;47.792;10.616;2023-08-21T02:24:17;18.80;99.90
19561;DHT22;9927;47.792;10.616;2023-08-21T02:26:44;18.80;99.90
19561;DHT22;9927;47.792;10.616;2023-08-21T02:29:12;18.70;99.90
19561;DHT22;9927;47.792;10.616;2023-08-21T02:31:40;18.70;99.90
19561;DHT22;9927;47.792;10.616;2023-08-21T02:34:07;18.70;99.90
19561;DHT22;9927;47.792;10.616;2023-08-21T02:36:34;18.60;99.90
19561;DHT22;9927;47.792;10.616;2023-08-21T02:39:02;18.60;99.90
19561;DHT22;9927;47.792;10.616;2023-08-21T02:41:30;18.60;99.90
19561;DHT22;9927;47.792;10.616;2023-08-21T02:43:57;18.60;99.90
19561;DHT22;9927;47.792;10.616;2023-08-21T02:46:25;18.50;99.90
19561;DHT22;9927;47.792;10.616;2023-08-21T02:48:52;18.50;99.90
19561;DHT22;9927;47.792;10.616;2023-08-21T02:51:19;18.40;99.90
19561;DHT22;9927;47.792;10.616;2023-08-21T02:53:46;18.40;99.90
19561;DHT22;9927;47.792;10.616;2023-08-21T02:56:14;18.40;99.90
19561;DHT22;9927;47.792;10.616;2023-08-21T02:58:41;18.30;99.90
19561;DHT22;9927;47.792;10.616;2023-08-21T03:01:08;18.30;99.90
19561;DHT22;9927;47.792;10.616;2023-08-21T03:03:35;18.30;99.90
19561;DHT22;9927;47.792;10.616;2023-08-21T03:06:03;18.30;99.90
19561;DHT22;9927;47.792;10.616;2023-08-21T03:08:30;18.30;99.90
19561;DHT22;9927;47.792;10.616;2023-08-21T03:10:57;18.30;99.90
19561;DHT22;9927;47.792;10.616;2023-08-21T03:13:25;18.30;99.90
19561;DHT22;9927;47.792;10.616;2023-08-21T03:15:52;18.30;99.90
19561;DHT22;9927;47.792;10.616;2023-08-21T03:18:19;18.30;99.90
19561;DHT22;9927;47.792;10.616;2023-08-21T03:20:46;18.30;99.90
19561;DHT22;9927;47.792;10.616;2023-08-21T03:23:14;18.20;99.90
19561;DHT22;9927;47.792;10.616;2023-08-21T03:25:41;18.10;99.90
19561;DHT22;9927;47.792;10.616;2023-08-21T03:28:09;18.10;99.90
19561;DHT22;9927;47.792;10.616;2023-08-21T03:30:39;18.10;99.90
19561;DHT22;9927;47.792;10.616;2023-08-21T03:33:06;18.10;99.90
19561;DHT22;9927;47.792;10.616;2023-08-21T03:35:35;18.10;99.90
19561;DHT22;9927;47.792;10.616;2023-08-21T03:38:02;18.10;99.90
19561;DHT22;9927;47.792;10.616;2023-08-21T03:40:29;18.10;99.90
19561;DHT22;9927;47.792;10.616;2023-08-21T03:42:57;18.00;99.90
19561;DHT22;9927;47.792;10.616;2023-08-21T03:45:24;18.00;99.90
19561;DHT22;9927;47.792;10.616;2023-08-21T03:47:51;18.10;99.90
19561;DHT22;9927;47.792;10.616;2023-08-21T03:50:18;18.10;99.90
19561;DHT22;9927;47.792;10.616;2023-08-21T03:52:45;18.10;99.90
19561;DHT22;9927;47.792;10.616;2023-08-21T03:55:13;18.10;99.90
19561;DHT22;9927;47.792;10.616;2023-08-21T03:57:40;18.10;99.90
19561;DHT22;9927;47.792;10.616;2023-08-21T04:00:08;18.00;99.90
19561;DHT22;9927;47.792;10.616;2023-08-21T04:02:36;17.90;99.90
19561;DHT22;9927;47.792;10.616;2023-08-21T04:05:04;18.00;99.90
19561;DHT22;9927;47.792;10.616;2023-08-21T04:07:31;17.90;99.90
19561;DHT22;9927;47.792;10.616;2023-08-21T04:09:58;18.00;99.90
19561;DHT22;9927;47.792;10.616;2023-08-21T04:12:26;18.00;99.90
19561;DHT22;9927;47.792;10.616;2023-08-21T04:14:53;18.00;99.90
19561;DHT22;9927;47.792;10.616;2023-08-21T04:17:23;18.00;99.90
19561;DHT22;9927;47.792;10.616;2023-08-21T04:19:51;17.90;99.90
19561;DHT22;9927;47.792;10.616;2023-08-21T04:22:18;17.90;99.90
19561;DHT22;9927;47.792;10.616;2023-08-21T04:24:46;17.90;99.90
19561;DHT22;9927;47.792;10.616;2023-08-21T04:27:13;17.90;99.90
19561;DHT22;9927;47.792;10.616;2023-08-21T04:29:40;17.80;99.90
19561;DHT22;9927;47.792;10.616;2023-08-21T04:32:07;17.80;99.90
19561;DHT22;9927;47.792;10.616;2023-08-21T04:34:35;17.80;99.90
19561;DHT22;9927;47.792;10.616;2023-08-21T04:37:02;17.80;99.90
19561;DHT22;9927;47.792;10.616;2023-08-21T04:39:29;17.80;99.90
19561;DHT22;9927;47.792;10.616;2023-08-21T04:41:57;17.90;99.90
19561;DHT22;9927;47.792;10.616;2023-08-21T04:44:25;17.90;99.90
19561;DHT22;9927;47.792;10.616;2023-08-21T04:46:52;17.90;99.90
19561;DHT22;9927;47.792;10.616;2023-08-21T04:49:19;18.00;99.90
19561;DHT22;9927;47.792;10.616;2023-08-21T04:51:46;18.10;99.90
19561;DHT22;9927;47.792;10.616;2023-08-21T04:54:16;18.10;99.90
19561;DHT22;9927;47.792;10.616;2023-08-21T04:56:43;18.10;99.90
19561;DHT22;9927;47.792;10.616;2023-08-21T04:59:11;18.20;99.90
19561;DHT22;9927;47.792;10.616;2023-08-21T05:01:38;18.20;99.90
19561;DHT22;9927;47.792;10.616;2023-08-21T05:04:05;18.20;99.90
19561;DHT22;9927;47.792;10.616;2023-08-21T05:06:32;18.30;99.90
19561;DHT22;9927;47.792;10.616;2023-08-21T05:08:59;18.40;99.90
19561;DHT22;9927;47.792;10.616;2023-08-21T05:11:27;18.50;99.90
19561;DHT22;9927;47.792;10.616;2023-08-21T05:13:54;18.70;99.90
19561;DHT22;9927;47.792;10.616;2023-08-21T05:16:21;18.70;99.90
19561;DHT22;9927;47.792;10.616;2023-08-21T05:18:48;18.80;99.90
19561;DHT22;9927;47.792;10.616;2023-08-21T05:21:15;18.90;99.90
19561;DHT22;9927;47.792;10.616;2023-08-21T05:23:43;19.00;99.90
19561;DHT22;9927;47.792;10.616;2023-08-21T05:26:10;19.20;99.90
19561;DHT22;9927;47.792;10.616;2023-08-21T05:28:37;19.30;99.90
19561;DHT22;9927;47.792;10.616;2023-08-21T05:31:04;19.60;99.90
19561;DHT22;9927;47.792;10.616;2023-08-21T05:33:32;20.10;99.90
19561;DHT22;9927;47.792;10.616;2023-08-21T05:35:59;20.60;99.90
19561;DHT22;9927;47.792;10.616;2023-08-21T05:38:26;21.20;99.90
19561;DHT22;9927;47.792;10.616;2023-08-21T05:40:54;21.50;99.90
19561;DHT22;9927;47.792;10.616;2023-08-21T05:43:21;21.70;99.90
19561;DHT22;9927;47.792;10.616;2023-08-21T05:45:48;22.00;99.90
19561;DHT22;9927;47.792;10.616;2023-08-21T05:48:15;22.40;99.90
19561;DHT22;9927;47.792;10.616;2023-08-21T05:50:44;23.00;99.90
19561;DHT22;9927;47.792;10.616;2023-08-21T05:53:11;23.60;99.90
19561;DHT22;9927;47.792;10.616;2023-08-21T05:55:40;24.10;99.90
19561;DHT22;9927;47.792;10.616;2023-08-21T05:58:07;24.50;99.90
19561;DHT22;9927;47.792;10.616;2023-08-21T06:00:35;24.70;99.90
19561;DHT22;9927;47.792;10.616;2023-08-21T06:03:02;25.20;99.90
19561;DHT22;9927;47.792;10.616;2023-08-21T06:05:30;25.80;99.90
19561;DHT22;9927;47.792;10.616;2023-08-21T06:07:57;26.30;99.90
19561;DHT22;9927;47.792;10.616;2023-08-21T06:10:25;26.40;99.90
19561;DHT22;9927;47.792;10.616;2023-08-21T06:12:52;27.00;99.90
19561;DHT22;9927;47.792;10.616;2023-08-21T06:15:19;27.40;99.90
19561;DHT22;9927;47.792;10.616;2023-08-21T06:17:46;27.90;99.90
19561;DHT22;9927;47.792;10.616;2023-08-21T06:20:13;28.40;99.90
19561;DHT22;9927;47.792;10.616;2023-08-21T06:22:41;28.80;99.90
19561;DHT22;9927;47.792;10.616;2023-08-21T06:25:08;29.20;99.90
19561;DHT22;9927;47.792;10.616;2023-08-21T06:27:36;29.80;99.90
19561;DHT22;9927;47.792;10.616;2023-08-21T06:30:23;30.00;99.90
19561;DHT22;9927;47.792;10.616;2023-08-21T06:32:50;30.30;99.50
19561;DHT22;9927;47.792;10.616;2023-08-21T06:35:17;30.50;97.40
19561;DHT22;9927;47.792;10.616;2023-08-21T06:37:45;30.80;97.10
19561;DHT22;9927;47.792;10.616;2023-08-21T06:40:12;30.40;95.70
19561;DHT22;9927;47.792;10.616;2023-08-21T06:42:39;30.40;97.80
19561;DHT22;9927;47.792;10.616;2023-08-21T06:45:07;31.00;96.80
19561;DHT22;9927;47.792;10.616;2023-08-21T06:47:35;31.60;95.60
19561;DHT22;9927;47.792;10.616;2023-08-21T06:50:02;32.50;92.10
19561;DHT22;9927;47.792;10.616;2023-08-21T06:52:29;32.60;92.70
19561;DHT22;9927;47.792;10.616;2023-08-21T06:54:56;32.40;92.00
19561;DHT22;9927;47.792;10.616;2023-08-21T06:57:24;32.50;91.40
19561;DHT22;9927;47.792;10.616;2023-08-21T06:59:51;33.10;87.70
19561;DHT22;9927;47.792;10.616;2023-08-21T07:02:18;33.10;87.90
19561;DHT22;9927;47.792;10.616;2023-08-21T07:04:46;33.70;86.20
19561;DHT22;9927;47.792;10.616;2023-08-21T07:07:13;33.60;83.10
19561;DHT22;9927;47.792;10.616;2023-08-21T07:09:40;34.00;85.40
19561;DHT22;9927;47.792;10.616;2023-08-21T07:12:07;33.80;81.30
19561;DHT22;9927;47.792;10.616;2023-08-21T07:14:35;34.40;80.50
19561;DHT22;9927;47.792;10.616;2023-08-21T07:17:02;34.80;82.60
19561;DHT22;9927;47.792;10.616;2023-08-21T07:19:29;34.90;78.80
19561;DHT22;9927;47.792;10.616;2023-08-21T07:21:56;35.30;77.50
19561;DHT22;9927;47.792;10.616;2023-08-21T07:24:24;35.00;80.80
19561;DHT22;9927;47.792;10.616;2023-08-21T07:26:51;34.60;78.20
19561;DHT22;9927;47.792;10.616;2023-08-21T07:29:18;34.80;77.60
19561;DHT22;9927;47.792;10.616;2023-08-21T07:31:45;35.60;74.30
19561;DHT22;9927;47.792;10.616;2023-08-21T07:34:13;36.10;72.40
19561;DHT22;9927;47.792;10.616;2023-08-21T07:36:40;36.40;71.90
19561;DHT22;9927;47.792;10.616;2023-08-21T07:39:07;36.40;70.60
19561;DHT22;9927;47.792;10.616;2023-08-21T07:41:34;35.60;75.60
19561;DHT22;9927;47.792;10.616;2023-08-21T07:44:02;36.10;73.00
19561;DHT22;9927;47.792;10.616;2023-08-21T07:46:29;36.40;73.80
19561;DHT22;9927;47.792;10.616;2023-08-21T07:48:57;36.90;69.00
19561;DHT22;9927;47.792;10.616;2023-08-21T07:51:24;37.20;67.60
19561;DHT22;9927;47.792;10.616;2023-08-21T07:53:51;37.40;66.10
19561;DHT22;9927;47.792;10.616;2023-08-21T07:58:46;37.40;64.70
19561;DHT22;9927;47.792;10.616;2023-08-21T08:01:13;37.10;65.80
19561;DHT22;9927;47.792;10.616;2023-08-21T08:03:41;36.90;64.80
19561;DHT22;9927;47.792;10.616;2023-08-21T08:06:08;37.20;64.30
19561;DHT22;9927;47.792;10.616;2023-08-21T08:08:35;37.60;64.90
19561;DHT22;9927;47.792;10.616;2023-08-21T08:11:04;37.90;64.60
19561;DHT22;9927;47.792;10.616;2023-08-21T08:13:32;37.40;64.80
19561;DHT22;9927;47.792;10.616;2023-08-21T08:15:59;37.40;63.70
19561;DHT22;9927;47.792;10.616;2023-08-21T08:18:27;37.20;65.50
19561;DHT22;9927;47.792;10.616;2023-08-21T08:20:55;37.30;62.90
19561;DHT22;9927;47.792;10.616;2023-08-21T08:23:22;37.30;63.30
19561;DHT22;9927;47.792;10.616;2023-08-21T08:25:50;37.70;63.90
19561;DHT22;9927;47.792;10.616;2023-08-21T08:28:17;38.20;63.40
19561;DHT22;9927;47.792;10.616;2023-08-21T08:30:45;38.30;62.30
19561;DHT22;9927;47.792;10.616;2023-08-21T08:33:13;37.50;66.60
19561;DHT22;9927;47.792;10.616;2023-08-21T08:35:40;37.90;63.60
19561;DHT22;9927;47.792;10.616;2023-08-21T08:38:08;38.20;64.00
19561;DHT22;9927;47.792;10.616;2023-08-21T08:40:42;38.50;63.60
19561;DHT22;9927;47.792;10.616;2023-08-21T08:43:11;38.70;61.50
19561;DHT22;9927;47.792;10.616;2023-08-21T08:45:40;38.00;61.80
19561;DHT22;9927;47.792;10.616;2023-08-21T08:48:09;38.00;61.10
19561;DHT22;9927;47.792;10.616;2023-08-21T08:50:37;38.00;61.70
19561;DHT22;9927;47.792;10.616;2023-08-21T08:53:07;38.20;64.20
19561;DHT22;9927;47.792;10.616;2023-08-21T08:55:42;38.20;62.00
19561;DHT22;9927;47.792;10.616;2023-08-21T08:58:10;38.30;60.90
19561;DHT22;9927;47.792;10.616;2023-08-21T09:00:37;38.50;60.30
19561;DHT22;9927;47.792;10.616;2023-08-21T09:03:05;38.80;60.80
19561;DHT22;9927;47.792;10.616;2023-08-21T09:05:34;37.90;60.00
19561;DHT22;9927;47.792;10.616;2023-08-21T09:08:13;37.70;60.20
19561;DHT22;9927;47.792;10.616;2023-08-21T09:10:41;37.60;62.60
19561;DHT22;9927;47.792;10.616;2023-08-21T09:13:12;37.50;61.90
19561;DHT22;9927;47.792;10.616;2023-08-21T09:15:41;37.30;63.00
19561;DHT22;9927;47.792;10.616;2023-08-21T09:18:11;36.80;65.60
19561;DHT22;9927;47.792;10.616;2023-08-21T09:20:39;36.50;65.80
19561;DHT22;9927;47.792;10.616;2023-08-21T09:23:06;35.70;65.30
19561;DHT22;9927;47.792;10.616;2023-08-21T09:25:47;35.10;66.50
19561;DHT22;9927;47.792;10.616;2023-08-21T09:28:34;35.00;68.60
19561;DHT22;9927;47.792;10.616;2023-08-21T09:31:30;34.90;73.10
19561;DHT22;9927;47.792;10.616;2023-08-21T09:33:58;35.20;69.90
19561;DHT22;9927;47.792;10.616;2023-08-21T09:36:27;34.90;70.70
19561;DHT22;9927;47.792;10.616;2023-08-21T09:38:55;34.40;71.30
19561;DHT22;9927;47.792;10.616;2023-08-21T09:41:23;34.20;69.70
19561;DHT22;9927;47.792;10.616;2023-08-21T09:43:51;33.90;70.10
19561;DHT22;9927;47.792;10.616;2023-08-21T09:46:25;34.10;71.60
19561;DHT22;9927;47.792;10.616;2023-08-21T09:48:53;34.00;72.90
19561;DHT22;9927;47.792;10.616;2023-08-21T09:51:21;33.80;72.10
19561;DHT22;9927;47.792;10.616;2023-08-21T09:53:49;33.80;72.20
19561;DHT22;9927;47.792;10.616;2023-08-21T09:56:19;33.80;71.60
19561;DHT22;9927;47.792;10.616;2023-08-21T09:58:50;33.40;72.50
19561;DHT22;9927;47.792;10.616;2023-08-21T10:01:20;33.50;76.00
19561;DHT22;9927;47.792;10.616;2023-08-21T10:03:48;33.60;75.90
19561;DHT22;9927;47.792;10.616;2023-08-21T10:06:17;33.40;73.10
19561;DHT22;9927;47.792;10.616;2023-08-21T10:08:53;33.40;74.10
19561;DHT22;9927;47.792;10.616;2023-08-21T10:11:21;33.20;77.20
19561;DHT22;9927;47.792;10.616;2023-08-21T10:13:49;33.20;74.60
19561;DHT22;9927;47.792;10.616;2023-08-21T10:16:19;33.20;73.90
19561;DHT22;9927;47.792;10.616;2023-08-21T10:18:51;32.80;75.80
19561;DHT22;9927;47.792;10.616;2023-08-21T10:21:21;32.50;76.50
19561;DHT22;9927;47.792;10.616;2023-08-21T10:23:50;32.40;78.00
19561;DHT22;9927;47.792;10.616;2023-08-21T10:26:22;32.30;78.40
19561;DHT22;9927;47.792;10.616;2023-08-21T10:28:52;32.30;77.80
19561;DHT22;9927;47.792;10.616;2023-08-21T10:34:01;32.40;75.60
19561;DHT22;9927;47.792;10.616;2023-08-21T10:39:15;32.00;75.40
19561;DHT22;9927;47.792;10.616;2023-08-21T10:42:01;31.80;78.20
19561;DHT22;9927;47.792;10.616;2023-08-21T10:44:57;31.90;77.50
19561;DHT22;9927;47.792;10.616;2023-08-21T10:49:58;31.80;78.30
19561;DHT22;9927;47.792;10.616;2023-08-21T10:52:27;31.90;80.50
19561;DHT22;9927;47.792;10.616;2023-08-21T10:54:59;32.00;79.60
19561;DHT22;9927;47.792;10.616;2023-08-21T10:57:30;32.20;78.20
19561;DHT22;9927;47.792;10.616;2023-08-21T11:00:05;32.30;78.00
19561;DHT22;9927;47.792;10.616;2023-08-21T11:02:38;32.30;76.60
19561;DHT22;9927;47.792;10.616;2023-08-21T11:05:07;32.30;77.70
19561;DHT22;9927;47.792;10.616;2023-08-21T11:10:08;32.50;77.80
19561;DHT22;9927;47.792;10.616;2023-08-21T11:12:47;32.50;77.70
19561;DHT22;9927;47.792;10.616;2023-08-21T11:15:16;32.60;77.80
19561;DHT22;9927;47.792;10.616;2023-08-21T11:17:57;32.60;77.00
19561;DHT22;9927;47.792;10.616;2023-08-21T11:20:33;32.70;77.10
19561;DHT22;9927;47.792;10.616;2023-08-21T11:23:02;32.70;74.70
19561;DHT22;9927;47.792;10.616;2023-08-21T11:25:39;32.60;74.70
19561;DHT22;9927;47.792;10.616;2023-08-21T11:28:07;32.40;72.80
19561;DHT22;9927;47.792;10.616;2023-08-21T11:30:35;32.30;74.50
19561;DHT22;9927;47.792;10.616;2023-08-21T11:33:12;32.30;75.60
19561;DHT22;9927;47.792;10.616;2023-08-21T11:35:41;32.40;75.00
19561;DHT22;9927;47.792;10.616;2023-08-21T11:38:20;32.40;73.60
19561;DHT22;9927;47.792;10.616;2023-08-21T11:41:01;32.50;75.10
19561;DHT22;9927;47.792;10.616;2023-08-21T11:46:04;32.50;72.50
19561;DHT22;9927;47.792;10.616;2023-08-21T11:48:32;32.50;72.60
19561;DHT22;9927;47.792;10.616;2023-08-21T11:51:00;32.50;72.60
19561;DHT22;9927;47.792;10.616;2023-08-21T11:53:32;32.50;71.10
19561;DHT22;9927;47.792;10.616;2023-08-21T11:56:00;32.60;72.60
19561;DHT22;9927;47.792;10.616;2023-08-21T11:58:27;32.70;72.70
19561;DHT22;9927;47.792;10.616;2023-08-21T12:01:02;32.80;73.30
19561;DHT22;9927;47.792;10.616;2023-08-21T12:03:36;32.80;72.50
19561;DHT22;9927;47.792;10.616;2023-08-21T12:06:09;32.70;77.10
19561;DHT22;9927;47.792;10.616;2023-08-21T12:08:38;32.80;74.80
19561;DHT22;9927;47.792;10.616;2023-08-21T12:11:06;32.70;73.60
19561;DHT22;9927;47.792;10.616;2023-08-21T12:13:34;32.60;74.60
19561;DHT22;9927;47.792;10.616;2023-08-21T12:16:03;32.60;76.70
19561;DHT22;9927;47.792;10.616;2023-08-21T12:18:30;32.50;74.30
19561;DHT22;9927;47.792;10.616;2023-08-21T12:20:58;32.40;77.60
19561;DHT22;9927;47.792;10.616;2023-08-21T12:23:25;32.30;77.20
19561;DHT22;9927;47.792;10.616;2023-08-21T12:25:52;32.30;78.40
19561;DHT22;9927;47.792;10.616;2023-08-21T12:28:19;32.30;78.10
19561;DHT22;9927;47.792;10.616;2023-08-21T12:30:47;32.40;77.10
19561;DHT22;9927;47.792;10.616;2023-08-21T12:33:14;32.30;78.20
19561;DHT22;9927;47.792;10.616;2023-08-21T12:35:50;32.20;76.40
19561;DHT22;9927;47.792;10.616;2023-08-21T12:38:17;32.10;77.30
19561;DHT22;9927;47.792;10.616;2023-08-21T12:40:45;32.20;76.60
19561;DHT22;9927;47.792;10.616;2023-08-21T12:43:12;32.00;78.30
19561;DHT22;9927;47.792;10.616;2023-08-21T12:45:39;31.80;77.30
19561;DHT22;9927;47.792;10.616;2023-08-21T12:48:07;32.00;77.60
19561;DHT22;9927;47.792;10.616;2023-08-21T12:50:35;32.00;77.80
19561;DHT22;9927;47.792;10.616;2023-08-21T12:53:02;32.20;76.50
19561;DHT22;9927;47.792;10.616;2023-08-21T12:55:30;32.20;77.10
19561;DHT22;9927;47.792;10.616;2023-08-21T12:57:57;32.20;74.60
19561;DHT22;9927;47.792;10.616;2023-08-21T13:00:24;32.30;76.30
19561;DHT22;9927;47.792;10.616;2023-08-21T13:02:52;32.30;78.10
19561;DHT22;9927;47.792;10.616;2023-08-21T13:05:19;32.40;78.40
19561;DHT22;9927;47.792;10.616;2023-08-21T13:07:46;32.50;77.10
19561;DHT22;9927;47.792;10.616;2023-08-21T13:10:14;32.50;73.80
19561;DHT22;9927;47.792;10.616;2023-08-21T13:12:41;32.40;73.80
19561;DHT22;9927;47.792;10.616;2023-08-21T13:15:09;32.30;73.60
19561;DHT22;9927;47.792;10.616;2023-08-21T13:17:36;32.30;74.30
19561;DHT22;9927;47.792;10.616;2023-08-21T13:20:04;32.40;75.00
19561;DHT22;9927;47.792;10.616;2023-08-21T13:22:49;32.50;76.20
19561;DHT22;9927;47.792;10.616;2023-08-21T13:25:19;32.50;73.50
19561;DHT22;9927;47.792;10.616;2023-08-21T13:27:50;32.40;73.80
19561;DHT22;9927;47.792;10.616;2023-08-21T13:30:18;32.30;73.80
19561;DHT22;9927;47.792;10.616;2023-08-21T13:32:45;32.30;74.20
19561;DHT22;9927;47.792;10.616;2023-08-21T13:35:12;32.40;74.00
19561;DHT22;9927;47.792;10.616;2023-08-21T13:37:40;32.30;74.80
19561;DHT22;9927;47.792;10.616;2023-08-21T13:40:08;32.20;73.60
19561;DHT22;9927;47.792;10.616;2023-08-21T13:42:44;32.20;73.10
19561;DHT22;9927;47.792;10.616;2023-08-21T13:45:14;32.10;72.40
19561;DHT22;9927;47.792;10.616;2023-08-21T13:47:43;32.30;74.10
19561;DHT22;9927;47.792;10.616;2023-08-21T13:50:11;32.40;74.90
19561;DHT22;9927;47.792;10.616;2023-08-21T13:52:38;32.40;76.60
19561;DHT22;9927;47.792;10.616;2023-08-21T13:55:08;32.50;73.10
19561;DHT22;9927;47.792;10.616;2023-08-21T13:57:36;32.50;74.00
19561;DHT22;9927;47.792;10.616;2023-08-21T14:00:06;32.70;74.30
19561;DHT22;9927;47.792;10.616;2023-08-21T14:02:34;32.60;72.80
19561;DHT22;9927;47.792;10.616;2023-08-21T14:05:03;32.60;74.60
19561;DHT22;9927;47.792;10.616;2023-08-21T14:07:33;32.70;74.60
19561;DHT22;9927;47.792;10.616;2023-08-21T14:10:02;32.80;73.40
19561;DHT22;9927;47.792;10.616;2023-08-21T14:12:30;32.90;71.60
19561;DHT22;9927;47.792;10.616;2023-08-21T14:14:59;32.90;70.40
19561;DHT22;9927;47.792;10.616;2023-08-21T14:17:27;32.90;70.30
19561;DHT22;9927;47.792;10.616;2023-08-21T14:19:55;32.80;69.20
19561;DHT22;9927;47.792;10.616;2023-08-21T14:22:22;32.70;70.20
19561;DHT22;9927;47.792;10.616;2023-08-21T14:24:50;32.80;69.70
19561;DHT22;9927;47.792;10.616;2023-08-21T14:27:17;32.90;71.10
19561;DHT22;9927;47.792;10.616;2023-08-21T14:29:44;33.00;71.30
19561;DHT22;9927;47.792;10.616;2023-08-21T14:32:13;33.10;70.10
19561;DHT22;9927;47.792;10.616;2023-08-21T14:34:40;33.00;69.40
19561;DHT22;9927;47.792;10.616;2023-08-21T14:37:08;33.00;70.30
19561;DHT22;9927;47.792;10.616;2023-08-21T14:39:35;32.90;69.50
19561;DHT22;9927;47.792;10.616;2023-08-21T14:42:03;33.00;68.30
19561;DHT22;9927;47.792;10.616;2023-08-21T14:44:30;33.00;69.60
19561;DHT22;9927;47.792;10.616;2023-08-21T14:46:57;33.10;66.90
19561;DHT22;9927;47.792;10.616;2023-08-21T14:49:29;33.00;67.30
19561;DHT22;9927;47.792;10.616;2023-08-21T14:51:56;32.90;66.60
19561;DHT22;9927;47.792;10.616;2023-08-21T14:54:24;32.90;68.40
19561;DHT22;9927;47.792;10.616;2023-08-21T14:56:52;33.00;67.80
19561;DHT22;9927;47.792;10.616;2023-08-21T14:59:19;33.10;68.20
19561;DHT22;9927;47.792;10.616;2023-08-21T15:04:14;33.40;66.90
19561;DHT22;9927;47.792;10.616;2023-08-21T15:06:41;33.50;67.70
19561;DHT22;9927;47.792;10.616;2023-08-21T15:09:08;33.60;68.40
19561;DHT22;9927;47.792;10.616;2023-08-21T15:11:35;33.80;67.70
19561;DHT22;9927;47.792;10.616;2023-08-21T15:14:03;33.90;66.60
19561;DHT22;9927;47.792;10.616;2023-08-21T15:16:31;34.00;67.10
19561;DHT22;9927;47.792;10.616;2023-08-21T15:18:58;33.90;66.00
19561;DHT22;9927;47.792;10.616;2023-08-21T15:21:26;33.90;65.00
19561;DHT22;9927;47.792;10.616;2023-08-21T15:23:53;33.70;66.80
19561;DHT22;9927;47.792;10.616;2023-08-21T15:26:21;33.80;65.40
19561;DHT22;9927;47.792;10.616;2023-08-21T15:28:48;33.80;64.60
19561;DHT22;9927;47.792;10.616;2023-08-21T15:31:19;33.90;66.30
19561;DHT22;9927;47.792;10.616;2023-08-21T15:33:46;33.90;67.90
19561;DHT22;9927;47.792;10.616;2023-08-21T15:36:17;34.00;65.80
19561;DHT22;9927;47.792;10.616;2023-08-21T15:38:44;34.10;64.80
19561;DHT22;9927;47.792;10.616;2023-08-21T15:41:12;34.10;65.00
19561;DHT22;9927;47.792;10.616;2023-08-21T15:43:39;34.00;64.30
19561;DHT22;9927;47.792;10.616;2023-08-21T15:46:06;33.90;66.10
19561;DHT22;9927;47.792;10.616;2023-08-21T15:48:33;33.90;67.90
19561;DHT22;9927;47.792;10.616;2023-08-21T15:51:01;33.90;69.20
19561;DHT22;9927;47.792;10.616;2023-08-21T15:53:30;34.00;66.10
19561;DHT22;9927;47.792;10.616;2023-08-21T15:55:57;33.70;65.30
19561;DHT22;9927;47.792;10.616;2023-08-21T15:58:25;33.60;66.60
19561;DHT22;9927;47.792;10.616;2023-08-21T16:00:52;33.60;67.00